Time;durP1;ratioP1;P1;durP2;ratioP2;P2;SDS_P1;SDS_P2;PMS_P1;PMS_P2;Temp;Humidity;BMP_temperature;BMP_pressure;BME280_temperature;BME280_humidity;BME280_pressure;Samples;Min_cycle;Max_cycle;Signal;HPM_P1;HPM_P2
2024/02/12 00:02:32;;;;;;;;;;;;;;;17.84;46.07;97751.34;10157902;28;819;-66
2024/02/12 00:07:28;;;;;;;;;;;;;;;17.83;46.38;97760.22;10160628;28;940;-66
2024/02/12 00:12:24;;;;;;;;;;;;;;;17.82;46.15;97763.81;10165034;28;1898;-66
2024/02/12 00:17:20;;;;;;;;;;;;;;;17.82;46.27;97772.56;10164336;28;811;-66
2024/02/12 00:22:16;;;;;;;;;;;;;;;17.82;46.25;97774.38;10164803;28;917;-66
2024/02/12 00:27:12;;;;;;;;;;;;;;;17.80;46.12;97777.09;10164031;28;774;-66
2024/02/12 00:32:09;;;;;;;;;;;;;;;17.79;46.18;97779.81;10164365;28;1910;-66
2024/02/12 00:37:05;;;;;;;;;;;;;;;17.78;46.49;97778.97;10163733;28;791;-66
2024/02/12 00:42:03;;;;;;;;;;;;;;;17.77;46.29;97777.31;10164435;28;917;-66
2024/02/12 00:46:59;;;;;;;;;;;;;;;17.78;46.14;97780.78;10163946;28;859;-66
2024/02/12 00:51:55;;;;;;;;;;;;;;;17.76;46.30;97775.59;10163149;28;1958;-66
2024/02/12 00:56:52;;;;;;;;;;;;;;;17.75;46.29;97790.59;10163931;28;829;-66
2024/02/12 01:01:48;;;;;;;;;;;;;;;17.73;46.44;97797.75;10162909;28;818;-66
2024/02/12 01:06:44;;;;;;;;;;;;;;;17.73;46.28;97802.19;10163501;28;905;-66
2024/02/12 01:11:42;;;;;;;;;;;;;;;17.73;46.19;97810.09;10162002;28;1894;-66
2024/02/12 01:16:38;;;;;;;;;;;;;;;17.72;46.12;97809.25;10162858;28;1571;-66
2024/02/12 01:21:34;;;;;;;;;;;;;;;17.72;46.33;97808.44;10162175;28;798;-66
2024/02/12 01:26:34;;;;;;;;;;;;;;;17.71;46.31;97807.59;10162231;28;780;-66
2024/02/12 01:31:30;;;;;;;;;;;;;;;17.69;46.13;97817.41;10162255;28;1971;-66
2024/02/12 01:36:26;;;;;;;;;;;;;;;17.68;46.36;97821.00;10162568;28;937;-66
2024/02/12 01:41:22;;;;;;;;;;;;;;;17.69;46.46;97827.09;10162384;28;913;-66
2024/02/12 01:46:19;;;;;;;;;;;;;;;17.68;46.35;97828.03;10162228;28;782;-66
2024/02/12 01:51:15;;;;;;;;;;;;;;;17.68;46.25;97835.94;10162005;28;1906;-66
2024/02/12 01:56:11;;;;;;;;;;;;;;;17.67;46.24;97829.00;10161955;28;778;-66
2024/02/12 02:01:07;;;;;;;;;;;;;;;17.65;46.16;97830.91;10161702;28;888;-66
2024/02/12 02:06:03;;;;;;;;;;;;;;;17.63;46.47;97838.94;10161611;28;869;-66
2024/02/12 02:10:59;;;;;;;;;;;;;;;17.65;46.32;97851.97;10160806;28;1957;-66
2024/02/12 02:15:55;;;;;;;;;;;;;;;17.63;46.29;97856.50;10161281;28;842;-66
2024/02/12 02:20:51;;;;;;;;;;;;;;;17.63;46.24;97872.31;10160768;28;864;-66
2024/02/12 02:25:47;;;;;;;;;;;;;;;17.62;46.50;97857.47;10160961;28;853;-66
2024/02/12 02:30:42;;;;;;;;;;;;;;;17.60;46.29;97865.47;10158558;28;1911;-66
2024/02/12 02:35:38;;;;;;;;;;;;;;;17.60;46.43;97873.38;10160058;28;801;-66
2024/02/12 02:40:34;;;;;;;;;;;;;;;17.59;46.25;97876.97;10160068;28;894;-66
2024/02/12 02:45:30;;;;;;;;;;;;;;;17.59;46.46;97876.13;10159819;28;782;-66
2024/02/12 02:50:29;;;;;;;;;;;;;;;17.58;46.39;97877.94;10160154;28;1895;-66
2024/02/12 02:55:27;;;;;;;;;;;;;;;17.58;46.49;97875.31;10159412;28;981;-66
2024/02/12 03:00:26;;;;;;;;;;;;;;;17.56;46.20;97877.19;10158837;28;1003;-66
2024/02/12 03:05:21;;;;;;;;;;;;;;;17.57;46.44;97889.41;10159557;28;847;-66
2024/02/12 03:10:18;;;;;;;;;;;;;;;17.57;46.24;97888.56;10159583;28;1899;-66
2024/02/12 03:15:15;;;;;;;;;;;;;;;17.56;46.15;97897.44;10158896;28;939;-66
2024/02/12 03:20:11;;;;;;;;;;;;;;;17.55;46.35;97906.28;10158141;28;989;-66
2024/02/12 03:25:08;;;;;;;;;;;;;;;17.54;46.22;97897.53;10158651;28;798;-66
2024/02/12 03:30:05;;;;;;;;;;;;;;;17.52;46.30;97913.44;10158375;28;1953;-66
2024/02/12 03:35:01;;;;;;;;;;;;;;;17.52;46.36;97918.72;10158300;28;806;-66
2024/02/12 03:39:56;;;;;;;;;;;;;;;17.52;46.34;97926.59;10158303;28;790;-66
2024/02/12 03:44:53;;;;;;;;;;;;;;;17.52;46.45;97934.50;10157837;28;1055;-66
2024/02/12 04:00:18;;;;;;;;;;;;;;;17.49;46.46;97954.97;10158202;28;597;-66
2024/02/12 04:05:14;;;;;;;;;;;;;;;17.49;46.31;97966.34;10157247;28;989;-66
2024/02/12 04:10:10;;;;;;;;;;;;;;;17.49;46.36;97970.78;10158233;28;1957;-66
2024/02/12 04:15:09;;;;;;;;;;;;;;;17.49;46.40;97981.31;10157451;28;800;-66
2024/02/12 04:20:10;;;;;;;;;;;;;;;17.48;46.25;97985.75;10158041;28;881;-66
2024/02/12 04:25:06;;;;;;;;;;;;;;;17.47;46.43;97997.22;10157167;28;903;-66
2024/02/12 04:30:04;;;;;;;;;;;;;;;17.48;46.32;97998.06;10156947;28;1981;-66
2024/02/12 04:35:01;;;;;;;;;;;;;;;17.47;46.32;98010.38;10156759;28;854;-66
2024/02/12 04:39:57;;;;;;;;;;;;;;;17.47;46.34;98014.81;10157358;28;882;-66
2024/02/12 04:44:53;;;;;;;;;;;;;;;17.45;46.20;98020.22;10157320;28;856;-66
2024/02/12 04:49:49;;;;;;;;;;;;;;;17.48;46.38;98025.25;10157336;28;1978;-66
2024/02/12 04:54:45;;;;;;;;;;;;;;;17.50;46.24;98030.41;10159378;28;782;-66
2024/02/12 04:59:41;;;;;;;;;;;;;;;17.51;46.33;98035.56;10163759;28;916;-66
2024/02/12 05:04:37;;;;;;;;;;;;;;;17.52;46.43;98039.88;10163245;28;1569;-66
2024/02/12 05:09:33;;;;;;;;;;;;;;;17.54;46.39;98037.16;10162781;28;1963;-66
2024/02/12 05:14:29;;;;;;;;;;;;;;;17.56;46.38;98045.81;10162942;28;905;-66
2024/02/12 05:24:40;;;;;;;;;;;;;;;17.58;46.32;98064.97;10162742;28;597;-66
2024/02/12 05:29:37;;;;;;;;;;;;;;;17.59;46.26;98066.66;10162238;28;1906;-66
2024/02/12 05:34:33;;;;;;;;;;;;;;;17.61;46.24;98069.19;10162281;28;782;-66
2024/02/12 05:39:33;;;;;;;;;;;;;;;17.63;46.44;98068.16;10161921;28;777;-66
2024/02/12 05:44:29;;;;;;;;;;;;;;;17.62;46.19;98066.44;10161766;28;793;-66
2024/02/12 05:49:25;;;;;;;;;;;;;;;17.64;46.28;98067.19;10160941;28;1895;-66
2024/02/12 05:54:21;;;;;;;;;;;;;;;17.64;46.23;98075.09;10162287;28;810;-66
2024/02/12 05:59:17;;;;;;;;;;;;;;;17.65;46.26;98081.19;10161896;28;849;-66
2024/02/12 06:04:13;;;;;;;;;;;;;;;17.66;46.00;98089.00;10162261;28;931;-67
2024/02/12 06:09:09;;;;;;;;;;;;;;;17.69;46.20;98087.94;10162549;28;1898;-67
2024/02/12 06:14:07;;;;;;;;;;;;;;;17.69;46.15;98096.69;10160807;28;762;-67
2024/02/12 06:19:03;;;;;;;;;;;;;;;17.71;46.11;98093.94;10161212;28;841;-67
2024/02/12 06:23:59;;;;;;;;;;;;;;;17.72;46.20;98099.13;10161548;28;857;-67
2024/02/12 06:28:55;;;;;;;;;;;;;;;17.71;46.20;98107.09;10160269;28;1312;-67
2024/02/12 06:33:51;;;;;;;;;;;;;;;17.70;46.26;98108.06;10160142;28;1950;-67
2024/02/12 06:38:47;;;;;;;;;;;;;;;17.70;46.20;98115.97;10160118;28;849;-67
2024/02/12 06:43:42;;;;;;;;;;;;;;;17.70;45.92;98119.44;10160493;28;897;-67
2024/02/12 06:48:39;;;;;;;;;;;;;;;17.70;46.16;98130.00;10159782;28;774;-67
2024/02/12 06:53:35;;;;;;;;;;;;;;;17.71;46.10;98131.69;10159500;28;1959;-66
2024/02/12 06:58:31;;;;;;;;;;;;;;;17.74;46.12;98147.28;10159466;28;881;-66
2024/02/12 07:03:28;;;;;;;;;;;;;;;17.75;46.21;98166.56;10158773;28;838;-66
2024/02/12 07:08:24;;;;;;;;;;;;;;;17.74;46.27;98173.63;10159330;28;873;-69
2024/02/12 07:13:20;;;;;;;;;;;;;;;17.74;46.36;98184.19;10159083;28;1958;-66
2024/02/12 07:18:16;;;;;;;;;;;;;;;17.73;46.41;98189.53;10158343;28;773;-66
2024/02/12 07:23:12;;;;;;;;;;;;;;;17.71;46.32;98188.78;10159400;28;879;-66
2024/02/12 07:28:08;;;;;;;;;;;;;;;17.70;46.20;98201.13;10158902;28;998;-66
2024/02/12 07:33:04;;;;;;;;;;;;;;;17.68;46.13;98212.72;10159252;28;1911;-66
2024/02/12 07:37:59;;;;;;;;;;;;;;;17.68;46.21;98224.13;10159016;28;799;-67
2024/02/12 07:42:55;;;;;;;;;;;;;;;17.62;46.26;98224.53;10158478;28;1012;-67
2024/02/12 07:47:51;;;;;;;;;;;;;;;17.62;46.23;98224.53;10158085;28;925;-67
2024/02/12 07:52:49;;;;;;;;;;;;;;;17.61;46.21;98232.56;10158473;28;1891;-67
2024/02/12 07:57:45;;;;;;;;;;;;;;;17.60;46.22;98244.84;10159090;28;912;-67
2024/02/12 08:02:43;;;;;;;;;;;;;;;17.61;46.29;98243.94;10158357;28;799;-67
2024/02/12 08:07:39;;;;;;;;;;;;;;;17.61;46.33;98256.25;10157612;28;981;-66
2024/02/12 08:12:35;;;;;;;;;;;;;;;17.61;46.20;98259.72;10157456;28;1891;-67
2024/02/12 08:17:31;;;;;;;;;;;;;;;17.61;46.13;98265.00;10157363;28;1563;-66
2024/02/12 08:22:27;;;;;;;;;;;;;;;17.62;46.06;98271.13;10157875;28;859;-67
2024/02/12 08:27:23;;;;;;;;;;;;;;;17.62;46.03;98276.38;10157268;28;883;-67
2024/02/12 08:32:19;;;;;;;;;;;;;;;17.63;46.25;98289.47;10163435;28;1914;-67
2024/02/12 08:37:15;;;;;;;;;;;;;;;17.63;46.24;98299.13;10164353;28;891;-68
2024/02/12 08:42:11;;;;;;;;;;;;;;;17.63;46.18;98304.41;10163623;28;767;-68
2024/02/12 08:47:06;;;;;;;;;;;;;;;17.62;46.07;98323.81;10163561;28;818;-67
2024/02/12 08:52:02;;;;;;;;;;;;;;;17.62;46.04;98327.28;10163875;28;1957;-67
2024/02/12 08:56:59;;;;;;;;;;;;;;;17.68;46.02;98324.25;10163188;28;854;-66
2024/02/12 09:01:54;;;;;;;;;;;;;;;17.71;46.18;98336.38;10163636;28;778;-66
2024/02/12 09:06:50;;;;;;;;;;;;;;;17.73;46.40;98342.38;10162374;28;942;-66
2024/02/12 09:11:46;;;;;;;;;;;;;;;17.74;46.40;98349.38;10161835;28;1950;-66
2024/02/12 09:16:42;;;;;;;;;;;;;;;17.77;46.38;98353.59;10162592;28;858;-66
2024/02/12 09:21:38;;;;;;;;;;;;;;;17.76;46.22;98355.34;10161960;28;853;-68
2024/02/12 09:26:34;;;;;;;;;;;;;;;17.78;46.37;98365.81;10162984;28;790;-66
2024/02/12 09:31:33;;;;;;;;;;;;;;;17.79;46.56;98368.41;10177664;28;1914;-66
2024/02/12 09:36:29;;;;;;;;;;;;;;;17.79;46.52;98368.41;10201346;28;881;-66
2024/02/12 09:41:28;;;;;;;;;;;;;;;17.80;46.51;98371.88;10199990;28;780;-66
2024/02/12 09:46:24;;;;;;;;;;;;;;;17.81;46.33;98379.66;10201897;28;837;-66
2024/02/12 09:51:20;;;;;;;;;;;;;;;17.82;46.35;98383.16;10201244;28;1953;-66
2024/02/12 09:56:16;;;;;;;;;;;;;;;17.82;46.22;98381.38;10201402;28;797;-66
2024/02/12 10:01:12;;;;;;;;;;;;;;;17.84;46.42;98391.78;10201120;28;810;-67
2024/02/12 10:06:08;;;;;;;;;;;;;;;17.84;46.38;98391.78;10201504;28;790;-66
2024/02/12 10:11:05;;;;;;;;;;;;;;;17.84;46.27;98397.06;10201303;28;1907;-66
2024/02/12 10:16:01;;;;;;;;;;;;;;;17.85;46.33;98398.78;10201460;28;925;-67
2024/02/12 10:20:57;;;;;;;;;;;;;;;17.86;46.32;98398.66;10200644;28;881;-71
2024/02/12 10:25:53;;;;;;;;;;;;;;;17.86;46.54;98405.72;10200233;28;905;-68
2024/02/12 10:30:49;;;;;;;;;;;;;;;17.88;46.21;98409.94;10201043;28;1914;-66
2024/02/12 10:35:48;;;;;;;;;;;;;;;17.89;46.34;98416.06;10200816;28;851;-66
2024/02/12 10:40:44;;;;;;;;;;;;;;;17.88;46.60;98430.19;10199817;28;894;-67
2024/02/12 10:45:40;;;;;;;;;;;;;;;17.89;46.58;98439.78;10199837;28;924;-68
2024/02/12 10:50:36;;;;;;;;;;;;;;;17.88;46.37;98436.31;10198851;28;1898;-66
2024/02/12 10:55:34;;;;;;;;;;;;;;;17.87;46.30;98426.72;10199259;28;806;-66
2024/02/12 11:00:30;;;;;;;;;;;;;;;17.88;46.49;98431.03;10199246;28;794;-67
2024/02/12 11:05:26;;;;;;;;;;;;;;;17.90;46.68;98438.88;10199888;28;871;-67
2024/02/12 11:10:24;;;;;;;;;;;;;;;17.91;46.65;98443.19;10198884;28;1961;-67
2024/02/12 11:15:21;;;;;;;;;;;;;;;17.91;46.39;98448.44;10199653;28;818;-66
2024/02/12 11:20:17;;;;;;;;;;;;;;;17.92;46.66;98456.28;10198652;28;889;-67
2024/02/12 11:25:15;;;;;;;;;;;;;;;17.93;46.57;98457.13;10198488;28;834;-68
2024/02/12 11:30:10;;;;;;;;;;;;;;;17.94;46.38;98462.25;10198310;28;2001;-67
2024/02/12 11:35:06;;;;;;;;;;;;;;;17.93;46.52;98465.03;10198495;28;908;-68
2024/02/12 11:40:03;;;;;;;;;;;;;;;17.96;46.39;98475.38;10198736;28;849;-67
2024/02/12 11:44:59;;;;;;;;;;;;;;;17.94;46.42;98474.63;10197970;28;841;-67
2024/02/12 11:49:55;;;;;;;;;;;;;;;17.96;46.36;98476.19;10198471;28;1894;-66
2024/02/12 11:54:51;;;;;;;;;;;;;;;17.97;46.31;98471.78;10198350;28;850;-67
2024/02/12 11:59:47;;;;;;;;;;;;;;;17.96;46.54;98476.19;10196425;28;1155;-66
2024/02/12 12:04:44;;;;;;;;;;;;;;;17.97;46.47;98474.41;10200679;28;889;-66
2024/02/12 12:09:40;;;;;;;;;;;;;;;17.98;46.40;98475.28;10204324;28;1898;-66
2024/02/12 12:14:37;;;;;;;;;;;;;;;17.96;46.40;98486.75;10203839;28;814;-66
2024/02/12 12:19:34;;;;;;;;;;;;;;;17.99;46.37;98490.13;10203943;28;953;-66
2024/02/12 12:24:32;;;;;;;;;;;;;;;17.98;46.42;98497.22;10203531;28;770;-70
2024/02/12 12:29:29;;;;;;;;;;;;;;;17.96;46.47;98507.00;10203714;28;1910;-67
2024/02/12 12:34:24;;;;;;;;;;;;;;;17.96;46.73;98514.91;10203248;28;798;-67
2024/02/12 12:39:20;;;;;;;;;;;;;;;17.96;46.45;98512.28;10203184;28;1024;-67
2024/02/12 12:44:16;;;;;;;;;;;;;;;17.97;46.44;98511.31;10203389;28;1159;-67
2024/02/12 12:49:12;;;;;;;;;;;;;;;17.97;46.63;98519.22;10203759;28;885;-66
2024/02/12 12:54:09;;;;;;;;;;;;;;;18.00;46.32;98526.97;10202598;28;1894;-67
2024/02/12 12:59:05;;;;;;;;;;;;;;;17.99;46.28;98514.72;10202856;28;922;-66
2024/02/12 13:04:02;;;;;;;;;;;;;;;17.99;46.31;98522.63;10201769;28;862;-66
2024/02/12 13:08:58;;;;;;;;;;;;;;;18.01;46.35;98523.38;10203040;28;829;-66
2024/02/12 13:13:54;;;;;;;;;;;;;;;18.02;46.27;98532.13;10201735;28;1937;-67
2024/02/12 13:18:50;;;;;;;;;;;;;;;18.01;46.31;98526.00;10203016;28;817;-66
2024/02/12 13:23:46;;;;;;;;;;;;;;;18.06;46.25;98537.13;10202243;28;941;-66
2024/02/12 13:28:42;;;;;;;;;;;;;;;18.22;46.24;98539.63;10201947;28;1219;-66
2024/02/12 13:33:38;;;;;;;;;;;;;;;18.34;45.77;98538.84;10202004;28;1910;-66
2024/02/12 13:38:35;;;;;;;;;;;;;;;18.43;45.73;98532.09;10201948;28;905;-66
2024/02/12 13:43:30;;;;;;;;;;;;;;;18.40;45.69;98538.44;10201062;28;955;-66
2024/02/12 13:48:26;;;;;;;;;;;;;;;18.29;46.20;98545.34;10202125;28;928;-67
2024/02/12 13:53:22;;;;;;;;;;;;;;;18.24;46.43;98544.81;10201147;28;1886;-66
2024/02/12 13:58:21;;;;;;;;;;;;;;;18.22;46.28;98563.34;10201539;28;851;-66
2024/02/12 14:03:17;;;;;;;;;;;;;;;18.22;46.24;98563.34;10200699;28;948;-66
2024/02/12 14:08:13;;;;;;;;;;;;;;;18.22;46.48;98570.44;10200608;28;714;-67
2024/02/12 14:13:09;;;;;;;;;;;;;;;18.20;46.49;98578.41;10201216;28;1961;-66
2024/02/12 14:18:09;;;;;;;;;;;;;;;18.19;46.36;98587.28;10201013;28;937;-65
2024/02/12 14:23:05;;;;;;;;;;;;;;;18.16;46.18;98590.13;10200084;28;923;-66
2024/02/12 14:28:02;;;;;;;;;;;;;;;18.27;45.97;98600.00;10200414;28;1241;-67
2024/02/12 14:32:58;;;;;;;;;;;;;;;18.35;45.88;98598.56;10199893;28;1914;-66
2024/02/12 14:37:57;;;;;;;;;;;;;;;18.24;46.17;98616.03;10200294;28;809;-66
2024/02/12 14:42:53;;;;;;;;;;;;;;;18.26;46.22;98611.47;10199568;28;781;-66
2024/02/12 14:47:49;;;;;;;;;;;;;;;18.22;46.02;98621.38;10199984;28;837;-66
2024/02/12 14:52:45;;;;;;;;;;;;;;;18.23;46.18;98625.69;10199246;28;1964;-66
2024/02/12 14:57:41;;;;;;;;;;;;;;;18.19;46.25;98637.41;10199297;28;882;-66
2024/02/12 15:02:37;;;;;;;;;;;;;;;18.18;46.35;98648.88;10198952;28;885;-66
2024/02/12 15:07:32;;;;;;;;;;;;;;;18.17;46.25;98669.13;10198262;28;940;-66
2024/02/12 15:12:28;;;;;;;;;;;;;;;18.16;46.17;98703.53;10198608;28;1894;-68
2024/02/12 15:17:24;;;;;;;;;;;;;;;18.16;46.31;98688.53;10199198;28;867;-68
2024/02/12 15:22:23;;;;;;;;;;;;;;;18.15;46.01;98693.91;10198470;28;1369;-67
2024/02/12 15:27:18;;;;;;;;;;;;;;;18.17;46.11;98690.22;10198755;28;867;-69
2024/02/12 15:32:14;;;;;;;;;;;;;;;18.46;45.63;98698.13;10198826;28;1915;-68
2024/02/12 15:37:10;;;;;;;;;;;;;;;18.53;45.49;98698.59;10197504;28;993;-67
2024/02/12 15:42:06;;;;;;;;;;;;;;;18.52;45.50;98705.69;10198179;28;849;-72
2024/02/12 15:47:02;;;;;;;;;;;;;;;18.33;45.98;98713.03;10197646;28;858;-66
2024/02/12 15:51:58;;;;;;;;;;;;;;;18.22;45.98;98708.41;10198082;28;1914;-68
2024/02/12 15:57:00;;;;;;;;;;;;;;;18.19;46.02;98719.16;10196914;28;1020;-66
2024/02/12 16:01:55;;;;;;;;;;;;;;;18.16;46.03;98725.47;10197895;28;931;-66
2024/02/12 16:06:52;;;;;;;;;;;;;;;18.15;46.23;98733.47;10197421;28;940;-67
2024/02/12 16:11:48;;;;;;;;;;;;;;;18.14;46.03;98742.34;10196872;28;1898;-66
2024/02/12 16:16:44;;;;;;;;;;;;;;;18.11;46.23;98738.09;10197170;28;834;-67
2024/02/12 16:21:40;;;;;;;;;;;;;;;18.13;46.40;98741.50;10197480;28;871;-67
2024/02/12 16:26:36;;;;;;;;;;;;;;;18.12;46.41;98746.84;10196803;28;864;-66
2024/02/12 16:31:34;;;;;;;;;;;;;;;18.11;46.72;98758.34;10196754;28;1981;-66
2024/02/12 16:36:30;;;;;;;;;;;;;;;18.08;46.70;98769.94;10196601;28;986;-66
2024/02/12 16:41:26;;;;;;;;;;;;;;;18.08;46.63;98780.47;10196386;28;901;-67
2024/02/12 16:46:22;;;;;;;;;;;;;;;18.05;46.87;98793.84;10196304;28;925;-66
2024/02/12 16:51:18;;;;;;;;;;;;;;;18.04;46.90;98797.41;10200632;28;1902;-66
2024/02/12 16:56:15;;;;;;;;;;;;;;;18.03;46.65;98797.50;10203113;28;904;-66
2024/02/12 17:01:12;;;;;;;;;;;;;;;18.01;46.82;98810.78;10203330;28;1016;-66
2024/02/12 17:06:07;;;;;;;;;;;;;;;18.01;46.63;98816.03;10203752;28;821;-66
2024/02/12 17:11:04;;;;;;;;;;;;;;;18.00;46.79;98840.72;10202435;28;1898;-66
2024/02/12 17:15:59;;;;;;;;;;;;;;;18.01;46.62;98849.47;10202871;28;782;-67
2024/02/12 17:20:55;;;;;;;;;;;;;;;18.00;46.93;98840.72;10202175;28;962;-68
2024/02/12 17:25:51;;;;;;;;;;;;;;;18.02;46.88;98857.28;10202252;28;1026;-67
2024/02/12 17:30:47;;;;;;;;;;;;;;;18.01;46.80;98863.50;10201882;28;1886;-67
2024/02/12 17:35:43;;;;;;;;;;;;;;;18.02;46.90;98867.00;10202261;28;841;-67
2024/02/12 17:40:39;;;;;;;;;;;;;;;18.04;47.02;98873.88;10201498;28;801;-67
2024/02/12 17:45:35;;;;;;;;;;;;;;;18.05;47.02;98891.41;10202139;28;815;-67
2024/02/12 17:50:31;;;;;;;;;;;;;;;18.06;46.87;98898.38;10201200;28;1961;-67
2024/02/12 17:55:27;;;;;;;;;;;;;;;18.08;46.91;98912.31;10201766;28;841;-67
2024/02/12 18:00:23;;;;;;;;;;;;;;;18.08;46.88;98922.88;10201186;28;815;-67
2024/02/12 18:05:18;;;;;;;;;;;;;;;18.08;46.88;98933.44;10201337;28;873;-67
2024/02/12 18:10:14;;;;;;;;;;;;;;;18.10;46.77;98944.75;10201168;28;1957;-67
2024/02/12 18:15:11;;;;;;;;;;;;;;;18.11;47.06;98959.63;10200554;28;765;-66
2024/02/12 18:20:07;;;;;;;;;;;;;;;18.10;46.92;98971.13;10200824;28;850;-67
2024/02/12 18:25:03;;;;;;;;;;;;;;;18.12;46.91;98971.84;10200211;28;866;-67
2024/02/12 18:29:59;;;;;;;;;;;;;;;18.12;46.64;98982.41;10200285;28;1980;-66
2024/02/12 18:34:56;;;;;;;;;;;;;;;18.12;46.71;98992.94;10200535;28;874;-66
2024/02/12 18:39:57;;;;;;;;;;;;;;;18.13;46.72;99002.59;10200267;28;778;-66
2024/02/12 18:44:53;;;;;;;;;;;;;;;18.11;46.71;99007.09;10200350;28;833;-67
2024/02/12 18:49:50;;;;;;;;;;;;;;;18.11;46.66;99038.75;10199346;28;1902;-67
2024/02/12 18:54:46;;;;;;;;;;;;;;;18.12;46.41;99048.34;10199215;28;991;-67
2024/02/12 18:59:42;;;;;;;;;;;;;;;18.13;46.42;99050.06;10198576;28;1291;-66
2024/02/12 19:04:38;;;;;;;;;;;;;;;18.13;46.53;99057.97;10199009;28;946;-67
2024/02/12 19:09:33;;;;;;;;;;;;;;;18.14;46.43;99059.66;10198804;28;1894;-66
2024/02/12 19:14:29;;;;;;;;;;;;;;;18.14;46.55;99070.22;10197890;28;956;-67
2024/02/12 19:19:25;;;;;;;;;;;;;;;18.12;46.45;99080.00;10198547;28;770;-67
2024/02/12 19:24:21;;;;;;;;;;;;;;;18.15;46.50;99085.09;10198500;28;968;-68
2024/02/12 19:29:18;;;;;;;;;;;;;;;18.14;46.51;99093.94;10197430;28;1428;-67
2024/02/12 19:34:14;;;;;;;;;;;;;;;18.14;46.38;99095.75;10198592;28;1973;-67
2024/02/12 19:39:12;;;;;;;;;;;;;;;18.15;46.56;99100.91;10198578;28;1047;-67
2024/02/12 19:44:08;;;;;;;;;;;;;;;18.17;46.51;99112.22;10197765;28;959;-67
2024/02/12 19:49:04;;;;;;;;;;;;;;;18.17;46.44;99109.59;10197695;28;841;-66
2024/02/12 19:54:00;;;;;;;;;;;;;;;18.19;46.51;99117.44;10198220;28;1982;-66
2024/02/12 19:58:56;;;;;;;;;;;;;;;18.18;46.65;99121.88;10197387;28;960;-66
2024/02/12 20:03:53;;;;;;;;;;;;;;;18.20;46.43;99131.47;10198526;28;969;-67
2024/02/12 20:08:49;;;;;;;;;;;;;;;18.22;46.45;99140.16;10197132;28;840;-66
2024/02/12 20:13:45;;;;;;;;;;;;;;;18.20;46.54;99152.56;10197623;28;1957;-66
2024/02/12 20:18:41;;;;;;;;;;;;;;;18.19;46.58;99162.28;10197623;28;893;-66
2024/02/12 20:23:37;;;;;;;;;;;;;;;18.19;46.46;99172.84;10198245;28;982;-67
2024/02/12 20:28:34;;;;;;;;;;;;;;;18.20;46.30;99186.88;10203355;28;1360;-67
2024/02/12 20:33:30;;;;;;;;;;;;;;;18.20;46.49;99178.94;10204435;28;1902;-67
2024/02/12 20:38:26;;;;;;;;;;;;;;;18.18;46.54;99179.03;10203842;28;905;-66
2024/02/12 20:43:21;;;;;;;;;;;;;;;18.17;46.37;99187.88;10204023;28;845;-77
2024/02/12 20:48:17;;;;;;;;;;;;;;;18.14;46.44;99204.72;10203937;28;857;-76
2024/02/12 20:53:13;;;;;;;;;;;;;;;18.14;46.46;99210.00;10203789;28;1957;-76
2024/02/12 20:58:09;;;;;;;;;;;;;;;18.13;46.48;99224.13;10203044;28;786;-77
2024/02/12 21:03:06;;;;;;;;;;;;;;;18.13;46.61;99226.78;10202814;28;900;-76
2024/02/12 21:08:02;;;;;;;;;;;;;;;18.13;46.64;99231.16;10203075;28;881;-70
2024/02/12 21:12:58;;;;;;;;;;;;;;;18.12;46.68;99243.50;10203021;28;1902;-69
2024/02/12 21:17:54;;;;;;;;;;;;;;;18.11;46.83;99247.09;10202321;28;814;-70
2024/02/12 21:22:50;;;;;;;;;;;;;;;18.10;46.72;99253.31;10202159;28;885;-70
2024/02/12 21:27:46;;;;;;;;;;;;;;;18.09;46.83;99262.13;10201959;28;969;-69
2024/02/12 21:32:42;;;;;;;;;;;;;;;18.10;46.83;99266.50;10202963;28;1914;-69
2024/02/12 21:37:38;;;;;;;;;;;;;;;18.09;46.78;99283.25;10201178;28;913;-75
2024/02/12 21:42:34;;;;;;;;;;;;;;;18.06;46.59;99291.31;10201739;28;873;-76
2024/02/12 21:47:30;;;;;;;;;;;;;;;18.02;46.69;99295.03;10201678;28;855;-75
2024/02/12 21:52:26;;;;;;;;;;;;;;;17.99;46.69;99297.81;10201627;28;1954;-76
2024/02/12 21:57:23;;;;;;;;;;;;;;;17.97;46.55;99294.41;10201267;28;870;-75
2024/02/12 22:02:19;;;;;;;;;;;;;;;17.94;46.61;99299.84;10201155;28;885;-75
2024/02/12 22:07:15;;;;;;;;;;;;;;;17.93;46.45;99303.44;10201028;28;858;-75
2024/02/12 22:12:11;;;;;;;;;;;;;;;17.92;46.34;99305.22;10201458;28;1945;-75
2024/02/12 22:17:07;;;;;;;;;;;;;;;17.90;46.42;99308.84;10200846;28;918;-75
2024/02/12 22:22:02;;;;;;;;;;;;;;;17.89;46.34;99317.69;10200630;28;808;-75
2024/02/12 22:26:58;;;;;;;;;;;;;;;17.87;46.36;99324.84;10201307;28;814;-75
2024/02/12 22:31:54;;;;;;;;;;;;;;;17.83;46.25;99328.53;10199514;28;1981;-75
2024/02/12 22:36:50;;;;;;;;;;;;;;;17.82;46.20;99330.34;10200770;28;841;-75
2024/02/12 22:41:46;;;;;;;;;;;;;;;17.81;46.26;99336.50;10200601;28;790;-75
2024/02/12 22:46:42;;;;;;;;;;;;;;;17.81;46.14;99340.94;10199265;28;794;-78
2024/02/12 22:51:38;;;;;;;;;;;;;;;17.79;46.28;99358.59;10200236;28;1894;-78
2024/02/12 22:56:34;;;;;;;;;;;;;;;17.78;46.10;99368.28;10199563;28;789;-80
2024/02/12 23:01:30;;;;;;;;;;;;;;;17.75;46.18;99377.19;10199403;28;871;-82
2024/02/12 23:06:26;;;;;;;;;;;;;;;17.74;46.34;99380.75;10199255;28;925;-82
2024/02/12 23:11:24;;;;;;;;;;;;;;;17.74;46.20;99390.47;10199663;28;1963;-83
2024/02/12 23:16:21;;;;;;;;;;;;;;;17.71;46.34;99394.09;10198878;28;917;-83
2024/02/12 23:21:17;;;;;;;;;;;;;;;17.70;46.18;99412.63;10198151;28;992;-82
2024/02/12 23:26:13;;;;;;;;;;;;;;;17.69;46.21;99408.28;10199264;28;797;-82
2024/02/12 23:31:09;;;;;;;;;;;;;;;17.68;46.22;99420.63;10197416;28;1984;-83
2024/02/12 23:36:05;;;;;;;;;;;;;;;17.68;46.16;99427.66;10198986;28;777;-82
2024/02/12 23:41:01;;;;;;;;;;;;;;;17.66;46.06;99433.00;10198222;28;838;-82
2024/02/12 23:45:57;;;;;;;;;;;;;;;17.65;46.11;99446.25;10198102;28;1088;-82
2024/02/12 23:50:53;;;;;;;;;;;;;;;17.64;46.27;99447.19;10198510;28;1986;-83
2024/02/12 23:55:49;;;;;;;;;;;;;;;17.63;46.20;99448.97;10197870;28;901;-82
